sensor_id;sensor_type;location;lat;lon;timestamp;temperature;humidity
6865;DHT22;3471;49.678;8.388;2023-11-19T00:02:13;10.00;99.90
6865;DHT22;3471;49.678;8.388;2023-11-19T00:04:39;10.00;99.90
6865;DHT22;3471;49.678;8.388;2023-11-19T00:07:05;10.00;99.90
6865;DHT22;3471;49.678;8.388;2023-11-19T00:09:35;10.00;99.90
6865;DHT22;3471;49.678;8.388;2023-11-19T00:12:03;10.00;99.90
6865;DHT22;3471;49.678;8.388;2023-11-19T00:14:29;10.10;99.90
6865;DHT22;3471;49.678;8.388;2023-11-19T00:16:55;10.10;99.90
6865;DHT22;3471;49.678;8.388;2023-11-19T00:19:20;10.10;99.90
6865;DHT22;3471;49.678;8.388;2023-11-19T00:21:46;10.10;99.90
6865;DHT22;3471;49.678;8.388;2023-11-19T00:24:12;10.10;99.90
6865;DHT22;3471;49.678;8.388;2023-11-19T00:26:38;10.10;99.90
6865;DHT22;3471;49.678;8.388;2023-11-19T00:29:04;10.10;99.90
6865;DHT22;3471;49.678;8.388;2023-11-19T00:31:29;10.10;99.90
6865;DHT22;3471;49.678;8.388;2023-11-19T00:33:55;10.10;99.90
6865;DHT22;3471;49.678;8.388;2023-11-19T00:36:21;10.10;99.90
6865;DHT22;3471;49.678;8.388;2023-11-19T00:38:49;10.20;99.90
6865;DHT22;3471;49.678;8.388;2023-11-19T00:41:15;10.20;99.90
6865;DHT22;3471;49.678;8.388;2023-11-19T00:43:42;10.20;99.90
6865;DHT22;3471;49.678;8.388;2023-11-19T00:46:07;10.20;99.90
6865;DHT22;3471;49.678;8.388;2023-11-19T00:48:33;10.20;99.90
6865;DHT22;3471;49.678;8.388;2023-11-19T00:50:59;10.20;99.90
6865;DHT22;3471;49.678;8.388;2023-11-19T00:53:25;10.20;99.90
6865;DHT22;3471;49.678;8.388;2023-11-19T00:55:50;10.20;99.90
6865;DHT22;3471;49.678;8.388;2023-11-19T00:58:16;10.20;99.90
6865;DHT22;3471;49.678;8.388;2023-11-19T01:00:43;10.20;99.90
6865;DHT22;3471;49.678;8.388;2023-11-19T01:03:10;10.30;99.90
6865;DHT22;3471;49.678;8.388;2023-11-19T01:05:36;10.30;99.90
6865;DHT22;3471;49.678;8.388;2023-11-19T01:08:02;10.30;99.90
6865;DHT22;3471;49.678;8.388;2023-11-19T01:10:30;10.30;99.90
6865;DHT22;3471;49.678;8.388;2023-11-19T01:12:55;10.30;99.90
6865;DHT22;3471;49.678;8.388;2023-11-19T01:15:21;10.30;99.90
6865;DHT22;3471;49.678;8.388;2023-11-19T01:17:47;10.30;99.90
6865;DHT22;3471;49.678;8.388;2023-11-19T01:20:12;10.30;99.90
6865;DHT22;3471;49.678;8.388;2023-11-19T01:22:39;10.30;99.90
6865;DHT22;3471;49.678;8.388;2023-11-19T01:25:05;10.40;99.90
6865;DHT22;3471;49.678;8.388;2023-11-19T01:27:31;10.40;99.90
6865;DHT22;3471;49.678;8.388;2023-11-19T01:29:57;10.40;99.90
6865;DHT22;3471;49.678;8.388;2023-11-19T01:32:22;10.40;99.90
6865;DHT22;3471;49.678;8.388;2023-11-19T01:34:49;10.40;99.90
6865;DHT22;3471;49.678;8.388;2023-11-19T01:37:15;10.40;99.90
6865;DHT22;3471;49.678;8.388;2023-11-19T01:39:43;10.40;99.90
6865;DHT22;3471;49.678;8.388;2023-11-19T01:42:09;10.40;99.90
6865;DHT22;3471;49.678;8.388;2023-11-19T01:44:34;10.50;99.90
6865;DHT22;3471;49.678;8.388;2023-11-19T01:47:01;10.50;99.90
6865;DHT22;3471;49.678;8.388;2023-11-19T01:49:27;10.40;99.90
6865;DHT22;3471;49.678;8.388;2023-11-19T01:51:54;10.40;99.90
6865;DHT22;3471;49.678;8.388;2023-11-19T01:54:20;10.50;99.90
6865;DHT22;3471;49.678;8.388;2023-11-19T01:56:45;10.50;99.90
6865;DHT22;3471;49.678;8.388;2023-11-19T01:59:12;10.40;99.90
6865;DHT22;3471;49.678;8.388;2023-11-19T02:01:39;10.40;99.90
6865;DHT22;3471;49.678;8.388;2023-11-19T02:04:06;10.30;99.90
6865;DHT22;3471;49.678;8.388;2023-11-19T02:06:34;10.30;99.90
6865;DHT22;3471;49.678;8.388;2023-11-19T02:09:02;10.30;99.90
6865;DHT22;3471;49.678;8.388;2023-11-19T02:11:33;10.30;99.90
6865;DHT22;3471;49.678;8.388;2023-11-19T02:14:00;10.40;99.90
6865;DHT22;3471;49.678;8.388;2023-11-19T02:16:26;10.30;99.90
6865;DHT22;3471;49.678;8.388;2023-11-19T02:18:51;10.40;99.90
6865;DHT22;3471;49.678;8.388;2023-11-19T02:21:17;10.40;99.90
6865;DHT22;3471;49.678;8.388;2023-11-19T02:23:43;10.40;99.90
6865;DHT22;3471;49.678;8.388;2023-11-19T02:26:32;10.40;99.90
6865;DHT22;3471;49.678;8.388;2023-11-19T02:28:58;10.40;99.90
6865;DHT22;3471;49.678;8.388;2023-11-19T02:31:24;10.40;99.90
6865;DHT22;3471;49.678;8.388;2023-11-19T02:33:50;10.40;99.90
6865;DHT22;3471;49.678;8.388;2023-11-19T02:36:15;10.40;99.90
6865;DHT22;3471;49.678;8.388;2023-11-19T02:38:42;10.40;99.90
6865;DHT22;3471;49.678;8.388;2023-11-19T02:41:08;10.40;99.90
6865;DHT22;3471;49.678;8.388;2023-11-19T02:43:36;10.40;99.90
6865;DHT22;3471;49.678;8.388;2023-11-19T02:46:05;10.30;99.90
6865;DHT22;3471;49.678;8.388;2023-11-19T02:48:35;10.30;99.90
6865;DHT22;3471;49.678;8.388;2023-11-19T02:51:01;10.40;99.90
6865;DHT22;3471;49.678;8.388;2023-11-19T02:53:29;10.40;99.90
6865;DHT22;3471;49.678;8.388;2023-11-19T02:55:54;10.40;99.90
6865;DHT22;3471;49.678;8.388;2023-11-19T02:58:27;10.50;99.90
6865;DHT22;3471;49.678;8.388;2023-11-19T03:00:54;10.50;99.90
6865;DHT22;3471;49.678;8.388;2023-11-19T03:03:24;10.50;99.90
6865;DHT22;3471;49.678;8.388;2023-11-19T03:05:56;10.50;99.90
6865;DHT22;3471;49.678;8.388;2023-11-19T03:08:22;10.60;99.90
6865;DHT22;3471;49.678;8.388;2023-11-19T03:10:48;10.60;99.90
6865;DHT22;3471;49.678;8.388;2023-11-19T03:13:14;10.60;99.90
6865;DHT22;3471;49.678;8.388;2023-11-19T03:15:40;10.60;99.90
6865;DHT22;3471;49.678;8.388;2023-11-19T03:18:07;10.60;99.90
6865;DHT22;3471;49.678;8.388;2023-11-19T03:20:32;10.70;99.90
6865;DHT22;3471;49.678;8.388;2023-11-19T03:22:58;10.70;99.90
6865;DHT22;3471;49.678;8.388;2023-11-19T03:25:25;10.70;99.90
6865;DHT22;3471;49.678;8.388;2023-11-19T03:27:52;10.70;99.90
6865;DHT22;3471;49.678;8.388;2023-11-19T03:30:19;10.80;99.90
6865;DHT22;3471;49.678;8.388;2023-11-19T03:32:46;10.80;99.90
6865;DHT22;3471;49.678;8.388;2023-11-19T03:35:12;10.80;99.90
6865;DHT22;3471;49.678;8.388;2023-11-19T03:37:37;10.80;99.90
6865;DHT22;3471;49.678;8.388;2023-11-19T03:40:05;10.80;99.90
6865;DHT22;3471;49.678;8.388;2023-11-19T03:42:31;10.80;99.90
6865;DHT22;3471;49.678;8.388;2023-11-19T03:44:57;10.80;99.90
6865;DHT22;3471;49.678;8.388;2023-11-19T03:47:23;10.80;99.90
6865;DHT22;3471;49.678;8.388;2023-11-19T03:49:49;10.90;99.90
6865;DHT22;3471;49.678;8.388;2023-11-19T03:52:16;10.80;99.90
6865;DHT22;3471;49.678;8.388;2023-11-19T03:54:41;10.80;99.90
6865;DHT22;3471;49.678;8.388;2023-11-19T03:57:07;10.90;99.90
6865;DHT22;3471;49.678;8.388;2023-11-19T03:59:32;10.90;99.90
6865;DHT22;3471;49.678;8.388;2023-11-19T04:01:59;10.90;99.90
6865;DHT22;3471;49.678;8.388;2023-11-19T04:04:26;10.90;99.90
6865;DHT22;3471;49.678;8.388;2023-11-19T04:06:53;10.90;99.90
6865;DHT22;3471;49.678;8.388;2023-11-19T04:09:18;10.90;99.90
6865;DHT22;3471;49.678;8.388;2023-11-19T04:11:44;10.90;99.90
6865;DHT22;3471;49.678;8.388;2023-11-19T04:14:15;11.00;99.90
6865;DHT22;3471;49.678;8.388;2023-11-19T04:16:43;11.00;99.90
6865;DHT22;3471;49.678;8.388;2023-11-19T04:19:09;11.00;99.90
6865;DHT22;3471;49.678;8.388;2023-11-19T04:21:34;11.00;99.90
6865;DHT22;3471;49.678;8.388;2023-11-19T04:24:00;11.00;99.90
6865;DHT22;3471;49.678;8.388;2023-11-19T04:26:26;11.10;99.90
6865;DHT22;3471;49.678;8.388;2023-11-19T04:28:51;11.10;99.90
6865;DHT22;3471;49.678;8.388;2023-11-19T04:31:17;11.10;99.90
6865;DHT22;3471;49.678;8.388;2023-11-19T04:33:43;11.10;99.90
6865;DHT22;3471;49.678;8.388;2023-11-19T04:36:11;11.10;99.90
6865;DHT22;3471;49.678;8.388;2023-11-19T04:38:37;11.10;99.90
6865;DHT22;3471;49.678;8.388;2023-11-19T04:41:04;11.10;99.90
6865;DHT22;3471;49.678;8.388;2023-11-19T04:43:31;11.10;99.90
6865;DHT22;3471;49.678;8.388;2023-11-19T04:45:57;11.10;99.90
6865;DHT22;3471;49.678;8.388;2023-11-19T04:48:23;11.10;99.90
6865;DHT22;3471;49.678;8.388;2023-11-19T04:50:49;11.20;99.90
6865;DHT22;3471;49.678;8.388;2023-11-19T04:53:16;11.20;99.90
6865;DHT22;3471;49.678;8.388;2023-11-19T04:55:42;11.20;99.90
6865;DHT22;3471;49.678;8.388;2023-11-19T04:58:08;11.20;99.90
6865;DHT22;3471;49.678;8.388;2023-11-19T05:00:33;11.30;99.90
6865;DHT22;3471;49.678;8.388;2023-11-19T05:02:59;11.30;99.90
6865;DHT22;3471;49.678;8.388;2023-11-19T05:05:24;11.30;99.90
6865;DHT22;3471;49.678;8.388;2023-11-19T05:07:50;11.30;99.90
6865;DHT22;3471;49.678;8.388;2023-11-19T05:10:15;11.30;99.90
6865;DHT22;3471;49.678;8.388;2023-11-19T05:12:41;11.30;99.90
6865;DHT22;3471;49.678;8.388;2023-11-19T05:15:07;11.40;99.90
6865;DHT22;3471;49.678;8.388;2023-11-19T05:17:33;11.40;99.90
6865;DHT22;3471;49.678;8.388;2023-11-19T05:19:59;11.40;99.90
6865;DHT22;3471;49.678;8.388;2023-11-19T05:22:24;11.40;99.90
6865;DHT22;3471;49.678;8.388;2023-11-19T05:24:51;11.40;99.90
6865;DHT22;3471;49.678;8.388;2023-11-19T05:27:17;11.40;99.90
6865;DHT22;3471;49.678;8.388;2023-11-19T05:29:43;11.40;99.90
6865;DHT22;3471;49.678;8.388;2023-11-19T05:32:09;11.40;99.90
6865;DHT22;3471;49.678;8.388;2023-11-19T05:34:34;11.40;99.90
6865;DHT22;3471;49.678;8.388;2023-11-19T05:37:00;11.40;99.90
6865;DHT22;3471;49.678;8.388;2023-11-19T05:39:26;11.40;99.90
6865;DHT22;3471;49.678;8.388;2023-11-19T05:41:51;11.40;99.90
6865;DHT22;3471;49.678;8.388;2023-11-19T05:44:17;11.40;99.90
6865;DHT22;3471;49.678;8.388;2023-11-19T05:46:43;11.40;99.90
6865;DHT22;3471;49.678;8.388;2023-11-19T05:49:10;11.40;99.90
6865;DHT22;3471;49.678;8.388;2023-11-19T05:51:39;11.40;99.90
6865;DHT22;3471;49.678;8.388;2023-11-19T05:54:07;11.50;99.90
6865;DHT22;3471;49.678;8.388;2023-11-19T05:56:33;11.50;99.90
6865;DHT22;3471;49.678;8.388;2023-11-19T05:59:01;11.50;99.90
6865;DHT22;3471;49.678;8.388;2023-11-19T06:01:29;11.50;99.90
6865;DHT22;3471;49.678;8.388;2023-11-19T06:03:55;11.60;99.90
6865;DHT22;3471;49.678;8.388;2023-11-19T06:06:20;11.60;99.90
6865;DHT22;3471;49.678;8.388;2023-11-19T06:08:46;11.60;99.90
6865;DHT22;3471;49.678;8.388;2023-11-19T06:11:12;11.60;99.90
6865;DHT22;3471;49.678;8.388;2023-11-19T06:13:44;11.60;99.90
6865;DHT22;3471;49.678;8.388;2023-11-19T06:16:09;11.70;99.90
6865;DHT22;3471;49.678;8.388;2023-11-19T06:18:36;11.70;99.90
6865;DHT22;3471;49.678;8.388;2023-11-19T06:21:02;11.80;99.90
6865;DHT22;3471;49.678;8.388;2023-11-19T06:23:27;11.80;99.90
6865;DHT22;3471;49.678;8.388;2023-11-19T06:25:53;11.80;99.90
6865;DHT22;3471;49.678;8.388;2023-11-19T06:28:18;11.90;99.90
6865;DHT22;3471;49.678;8.388;2023-11-19T06:30:44;11.90;99.90
6865;DHT22;3471;49.678;8.388;2023-11-19T06:33:13;12.00;99.90
6865;DHT22;3471;49.678;8.388;2023-11-19T06:35:38;12.00;99.90
6865;DHT22;3471;49.678;8.388;2023-11-19T06:38:04;12.10;99.90
6865;DHT22;3471;49.678;8.388;2023-11-19T06:40:30;12.20;99.90
6865;DHT22;3471;49.678;8.388;2023-11-19T06:42:56;12.20;99.90
6865;DHT22;3471;49.678;8.388;2023-11-19T06:45:22;12.20;99.90
6865;DHT22;3471;49.678;8.388;2023-11-19T06:47:48;12.20;99.90
6865;DHT22;3471;49.678;8.388;2023-11-19T06:50:14;12.20;99.90
6865;DHT22;3471;49.678;8.388;2023-11-19T06:52:40;12.20;99.90
6865;DHT22;3471;49.678;8.388;2023-11-19T06:55:06;12.20;99.90
6865;DHT22;3471;49.678;8.388;2023-11-19T06:57:32;12.20;99.90
6865;DHT22;3471;49.678;8.388;2023-11-19T06:59:58;12.30;99.90
6865;DHT22;3471;49.678;8.388;2023-11-19T07:02:24;12.30;99.90
6865;DHT22;3471;49.678;8.388;2023-11-19T07:04:50;12.30;99.90
6865;DHT22;3471;49.678;8.388;2023-11-19T07:07:16;12.30;99.90
6865;DHT22;3471;49.678;8.388;2023-11-19T07:09:42;12.30;99.90
6865;DHT22;3471;49.678;8.388;2023-11-19T07:12:08;12.30;99.90
6865;DHT22;3471;49.678;8.388;2023-11-19T07:14:34;12.40;99.90
6865;DHT22;3471;49.678;8.388;2023-11-19T07:16:59;12.30;99.90
6865;DHT22;3471;49.678;8.388;2023-11-19T07:19:25;12.30;99.90
6865;DHT22;3471;49.678;8.388;2023-11-19T07:21:51;12.40;99.90
6865;DHT22;3471;49.678;8.388;2023-11-19T07:24:20;12.40;99.90
6865;DHT22;3471;49.678;8.388;2023-11-19T07:26:47;12.40;99.90
6865;DHT22;3471;49.678;8.388;2023-11-19T07:29:13;12.50;99.90
6865;DHT22;3471;49.678;8.388;2023-11-19T07:31:40;12.60;99.90
6865;DHT22;3471;49.678;8.388;2023-11-19T07:34:06;12.70;99.90
6865;DHT22;3471;49.678;8.388;2023-11-19T07:36:32;12.70;99.90
6865;DHT22;3471;49.678;8.388;2023-11-19T07:38:58;12.70;99.90
6865;DHT22;3471;49.678;8.388;2023-11-19T07:41:24;12.70;99.90
6865;DHT22;3471;49.678;8.388;2023-11-19T07:43:50;12.70;99.90
6865;DHT22;3471;49.678;8.388;2023-11-19T07:46:17;12.70;99.90
6865;DHT22;3471;49.678;8.388;2023-11-19T07:48:45;12.70;99.90
6865;DHT22;3471;49.678;8.388;2023-11-19T07:51:13;12.70;99.90
6865;DHT22;3471;49.678;8.388;2023-11-19T07:53:39;12.70;99.90
6865;DHT22;3471;49.678;8.388;2023-11-19T07:56:06;12.70;99.90
6865;DHT22;3471;49.678;8.388;2023-11-19T07:58:32;12.70;99.90
6865;DHT22;3471;49.678;8.388;2023-11-19T08:00:58;12.60;99.90
6865;DHT22;3471;49.678;8.388;2023-11-19T08:03:23;12.60;99.90
6865;DHT22;3471;49.678;8.388;2023-11-19T08:05:49;12.70;99.90
6865;DHT22;3471;49.678;8.388;2023-11-19T08:08:14;12.70;99.90
6865;DHT22;3471;49.678;8.388;2023-11-19T08:10:40;12.70;99.90
6865;DHT22;3471;49.678;8.388;2023-11-19T08:13:06;12.70;99.90
6865;DHT22;3471;49.678;8.388;2023-11-19T08:15:32;12.80;99.90
6865;DHT22;3471;49.678;8.388;2023-11-19T08:17:58;12.80;99.90
6865;DHT22;3471;49.678;8.388;2023-11-19T08:20:24;12.80;99.90
6865;DHT22;3471;49.678;8.388;2023-11-19T08:22:50;12.80;99.90
6865;DHT22;3471;49.678;8.388;2023-11-19T08:25:15;12.90;99.90
6865;DHT22;3471;49.678;8.388;2023-11-19T08:27:41;12.90;99.90
6865;DHT22;3471;49.678;8.388;2023-11-19T08:30:07;13.00;99.90
6865;DHT22;3471;49.678;8.388;2023-11-19T08:32:33;13.10;99.90
6865;DHT22;3471;49.678;8.388;2023-11-19T08:34:59;13.10;99.90
6865;DHT22;3471;49.678;8.388;2023-11-19T08:37:25;13.20;99.90
6865;DHT22;3471;49.678;8.388;2023-11-19T08:39:51;13.30;99.90
6865;DHT22;3471;49.678;8.388;2023-11-19T08:42:17;13.30;99.90
6865;DHT22;3471;49.678;8.388;2023-11-19T08:44:43;13.40;99.90
6865;DHT22;3471;49.678;8.388;2023-11-19T08:47:11;13.50;99.90
6865;DHT22;3471;49.678;8.388;2023-11-19T08:49:36;13.60;99.90
6865;DHT22;3471;49.678;8.388;2023-11-19T08:52:02;13.70;99.90
6865;DHT22;3471;49.678;8.388;2023-11-19T08:54:27;13.80;99.90
6865;DHT22;3471;49.678;8.388;2023-11-19T08:56:53;13.80;99.90
6865;DHT22;3471;49.678;8.388;2023-11-19T08:59:18;13.80;99.90
6865;DHT22;3471;49.678;8.388;2023-11-19T09:01:44;13.70;99.90
6865;DHT22;3471;49.678;8.388;2023-11-19T09:04:10;13.70;99.90
6865;DHT22;3471;49.678;8.388;2023-11-19T09:06:36;13.70;99.90
6865;DHT22;3471;49.678;8.388;2023-11-19T09:09:02;13.70;99.90
6865;DHT22;3471;49.678;8.388;2023-11-19T09:11:31;13.80;99.90
6865;DHT22;3471;49.678;8.388;2023-11-19T09:13:57;13.80;99.90
6865;DHT22;3471;49.678;8.388;2023-11-19T09:16:22;13.80;99.90
6865;DHT22;3471;49.678;8.388;2023-11-19T09:18:48;13.80;99.90
6865;DHT22;3471;49.678;8.388;2023-11-19T09:21:14;13.80;99.90
6865;DHT22;3471;49.678;8.388;2023-11-19T09:23:39;13.90;99.90
6865;DHT22;3471;49.678;8.388;2023-11-19T09:26:06;13.90;99.90
6865;DHT22;3471;49.678;8.388;2023-11-19T09:28:32;13.90;99.90
6865;DHT22;3471;49.678;8.388;2023-11-19T09:30:57;13.90;99.90
6865;DHT22;3471;49.678;8.388;2023-11-19T09:33:24;14.00;99.90
6865;DHT22;3471;49.678;8.388;2023-11-19T09:35:50;14.00;99.90
6865;DHT22;3471;49.678;8.388;2023-11-19T09:38:16;13.90;99.90
6865;DHT22;3471;49.678;8.388;2023-11-19T09:40:42;13.90;99.90
6865;DHT22;3471;49.678;8.388;2023-11-19T09:43:07;14.00;99.90
6865;DHT22;3471;49.678;8.388;2023-11-19T09:45:48;14.00;99.90
6865;DHT22;3471;49.678;8.388;2023-11-19T09:48:19;14.00;99.90
6865;DHT22;3471;49.678;8.388;2023-11-19T09:50:48;14.00;99.90
6865;DHT22;3471;49.678;8.388;2023-11-19T09:53:15;13.90;99.90
6865;DHT22;3471;49.678;8.388;2023-11-19T09:55:41;13.80;99.90
6865;DHT22;3471;49.678;8.388;2023-11-19T09:58:07;13.80;99.90
6865;DHT22;3471;49.678;8.388;2023-11-19T10:00:33;13.70;99.90
6865;DHT22;3471;49.678;8.388;2023-11-19T10:03:00;13.70;99.90
6865;DHT22;3471;49.678;8.388;2023-11-19T10:05:26;13.70;99.90
6865;DHT22;3471;49.678;8.388;2023-11-19T10:07:52;13.70;99.90
6865;DHT22;3471;49.678;8.388;2023-11-19T10:10:18;13.60;99.90
6865;DHT22;3471;49.678;8.388;2023-11-19T10:12:47;13.60;99.90
6865;DHT22;3471;49.678;8.388;2023-11-19T10:15:24;13.70;99.90
6865;DHT22;3471;49.678;8.388;2023-11-19T10:17:55;13.80;99.90
6865;DHT22;3471;49.678;8.388;2023-11-19T10:20:21;14.00;99.90
6865;DHT22;3471;49.678;8.388;2023-11-19T10:22:47;14.20;99.90
6865;DHT22;3471;49.678;8.388;2023-11-19T10:25:26;14.70;99.90
6865;DHT22;3471;49.678;8.388;2023-11-19T10:27:53;15.40;99.90
6865;DHT22;3471;49.678;8.388;2023-11-19T10:30:30;16.20;99.90
6865;DHT22;3471;49.678;8.388;2023-11-19T10:33:09;17.10;99.90
6865;DHT22;3471;49.678;8.388;2023-11-19T10:35:54;18.10;99.90
6865;DHT22;3471;49.678;8.388;2023-11-19T10:38:22;18.90;99.90
6865;DHT22;3471;49.678;8.388;2023-11-19T10:40:49;19.40;99.90
6865;DHT22;3471;49.678;8.388;2023-11-19T10:43:19;19.90;99.90
6865;DHT22;3471;49.678;8.388;2023-11-19T10:45:45;20.40;99.90
6865;DHT22;3471;49.678;8.388;2023-11-19T10:48:10;21.10;99.90
6865;DHT22;3471;49.678;8.388;2023-11-19T10:50:39;21.80;99.90
6865;DHT22;3471;49.678;8.388;2023-11-19T10:53:06;22.40;99.90
6865;DHT22;3471;49.678;8.388;2023-11-19T10:55:34;22.90;99.90
6865;DHT22;3471;49.678;8.388;2023-11-19T10:58:08;23.30;99.90
6865;DHT22;3471;49.678;8.388;2023-11-19T11:00:37;23.70;99.90
6865;DHT22;3471;49.678;8.388;2023-11-19T11:03:10;24.30;99.90
6865;DHT22;3471;49.678;8.388;2023-11-19T11:05:37;24.70;99.90
6865;DHT22;3471;49.678;8.388;2023-11-19T11:08:06;25.00;99.90
6865;DHT22;3471;49.678;8.388;2023-11-19T11:10:32;24.80;99.90
6865;DHT22;3471;49.678;8.388;2023-11-19T11:13:03;24.80;99.90
6865;DHT22;3471;49.678;8.388;2023-11-19T11:15:30;24.40;99.90
6865;DHT22;3471;49.678;8.388;2023-11-19T11:18:00;23.80;99.90
6865;DHT22;3471;49.678;8.388;2023-11-19T11:20:28;23.20;99.90
6865;DHT22;3471;49.678;8.388;2023-11-19T11:26:13;21.80;99.90
6865;DHT22;3471;49.678;8.388;2023-11-19T11:28:49;22.40;99.90
6865;DHT22;3471;49.678;8.388;2023-11-19T11:31:52;22.30;99.90
6865;DHT22;3471;49.678;8.388;2023-11-19T11:39:40;22.50;99.90
6865;DHT22;3471;49.678;8.388;2023-11-19T11:50:11;22.80;99.90
6865;DHT22;3471;49.678;8.388;2023-11-19T11:55:51;22.90;99.90
6865;DHT22;3471;49.678;8.388;2023-11-19T11:58:18;23.30;99.90
6865;DHT22;3471;49.678;8.388;2023-11-19T12:00:43;24.00;99.90
6865;DHT22;3471;49.678;8.388;2023-11-19T12:03:11;24.50;99.90
6865;DHT22;3471;49.678;8.388;2023-11-19T12:05:47;24.60;99.90
6865;DHT22;3471;49.678;8.388;2023-11-19T12:08:13;24.70;99.90
6865;DHT22;3471;49.678;8.388;2023-11-19T12:10:50;25.10;99.90
6865;DHT22;3471;49.678;8.388;2023-11-19T12:13:17;25.40;99.90
6865;DHT22;3471;49.678;8.388;2023-11-19T12:18:31;26.30;99.50
6865;DHT22;3471;49.678;8.388;2023-11-19T12:21:00;26.60;98.20
6865;DHT22;3471;49.678;8.388;2023-11-19T12:23:29;26.40;97.20
6865;DHT22;3471;49.678;8.388;2023-11-19T12:25:54;26.10;97.20
6865;DHT22;3471;49.678;8.388;2023-11-19T12:28:21;25.30;96.90
6865;DHT22;3471;49.678;8.388;2023-11-19T12:30:47;24.60;97.70
6865;DHT22;3471;49.678;8.388;2023-11-19T12:33:13;24.60;98.20
6865;DHT22;3471;49.678;8.388;2023-11-19T12:35:44;24.70;98.00
6865;DHT22;3471;49.678;8.388;2023-11-19T12:38:23;25.00;96.80
6865;DHT22;3471;49.678;8.388;2023-11-19T12:41:08;25.30;96.80
6865;DHT22;3471;49.678;8.388;2023-11-19T12:43:36;25.30;96.50
6865;DHT22;3471;49.678;8.388;2023-11-19T12:46:24;25.60;97.30
6865;DHT22;3471;49.678;8.388;2023-11-19T12:48:50;26.00;97.30
6865;DHT22;3471;49.678;8.388;2023-11-19T12:51:16;26.30;96.80
6865;DHT22;3471;49.678;8.388;2023-11-19T12:53:52;26.60;96.20
6865;DHT22;3471;49.678;8.388;2023-11-19T12:56:23;26.60;95.40
6865;DHT22;3471;49.678;8.388;2023-11-19T12:58:49;26.70;95.40
6865;DHT22;3471;49.678;8.388;2023-11-19T13:01:20;26.80;93.80
6865;DHT22;3471;49.678;8.388;2023-11-19T13:03:46;26.80;93.80
6865;DHT22;3471;49.678;8.388;2023-11-19T13:06:14;26.20;93.30
6865;DHT22;3471;49.678;8.388;2023-11-19T13:08:46;25.90;93.60
6865;DHT22;3471;49.678;8.388;2023-11-19T13:11:14;25.50;93.40
6865;DHT22;3471;49.678;8.388;2023-11-19T13:16:21;25.50;95.00
6865;DHT22;3471;49.678;8.388;2023-11-19T13:18:47;25.60;94.80
6865;DHT22;3471;49.678;8.388;2023-11-19T13:21:13;25.50;95.20
6865;DHT22;3471;49.678;8.388;2023-11-19T13:23:38;25.60;94.60
6865;DHT22;3471;49.678;8.388;2023-11-19T13:26:04;25.60;94.70
6865;DHT22;3471;49.678;8.388;2023-11-19T13:28:30;25.50;95.60
6865;DHT22;3471;49.678;8.388;2023-11-19T13:30:56;25.50;94.70
6865;DHT22;3471;49.678;8.388;2023-11-19T13:33:21;25.50;94.60
6865;DHT22;3471;49.678;8.388;2023-11-19T13:35:47;25.30;93.70
6865;DHT22;3471;49.678;8.388;2023-11-19T13:38:12;25.20;93.70
6865;DHT22;3471;49.678;8.388;2023-11-19T13:40:38;25.00;93.60
6865;DHT22;3471;49.678;8.388;2023-11-19T13:43:04;24.60;93.60
6865;DHT22;3471;49.678;8.388;2023-11-19T13:45:30;24.20;94.60
6865;DHT22;3471;49.678;8.388;2023-11-19T13:47:56;23.50;94.40
6865;DHT22;3471;49.678;8.388;2023-11-19T13:50:21;22.40;95.40
6865;DHT22;3471;49.678;8.388;2023-11-19T13:52:48;21.50;97.00
6865;DHT22;3471;49.678;8.388;2023-11-19T13:55:14;20.90;98.40
6865;DHT22;3471;49.678;8.388;2023-11-19T13:57:40;20.60;99.40
6865;DHT22;3471;49.678;8.388;2023-11-19T14:00:10;20.30;99.90
6865;DHT22;3471;49.678;8.388;2023-11-19T14:02:40;20.00;99.90
6865;DHT22;3471;49.678;8.388;2023-11-19T14:05:06;19.70;99.90
6865;DHT22;3471;49.678;8.388;2023-11-19T14:07:32;19.60;99.90
6865;DHT22;3471;49.678;8.388;2023-11-19T14:09:58;19.90;99.90
6865;DHT22;3471;49.678;8.388;2023-11-19T14:12:23;20.10;99.90
6865;DHT22;3471;49.678;8.388;2023-11-19T14:14:49;20.50;99.90
6865;DHT22;3471;49.678;8.388;2023-11-19T14:17:14;20.70;99.90
6865;DHT22;3471;49.678;8.388;2023-11-19T14:19:41;20.80;99.90
6865;DHT22;3471;49.678;8.388;2023-11-19T14:22:07;21.00;99.90
6865;DHT22;3471;49.678;8.388;2023-11-19T14:24:34;21.10;99.90
6865;DHT22;3471;49.678;8.388;2023-11-19T14:27:00;21.30;99.90
6865;DHT22;3471;49.678;8.388;2023-11-19T14:29:26;21.40;99.90
6865;DHT22;3471;49.678;8.388;2023-11-19T14:31:52;21.40;99.70
6865;DHT22;3471;49.678;8.388;2023-11-19T14:34:19;21.30;99.00
6865;DHT22;3471;49.678;8.388;2023-11-19T14:36:45;21.10;99.30
6865;DHT22;3471;49.678;8.388;2023-11-19T14:39:11;21.00;98.40
6865;DHT22;3471;49.678;8.388;2023-11-19T14:41:36;20.70;98.50
6865;DHT22;3471;49.678;8.388;2023-11-19T14:44:02;20.60;98.40
6865;DHT22;3471;49.678;8.388;2023-11-19T14:46:29;20.40;98.50
6865;DHT22;3471;49.678;8.388;2023-11-19T14:48:54;20.00;98.30
6865;DHT22;3471;49.678;8.388;2023-11-19T14:51:20;19.40;99.40
6865;DHT22;3471;49.678;8.388;2023-11-19T14:53:46;18.70;99.90
6865;DHT22;3471;49.678;8.388;2023-11-19T14:56:12;18.00;99.90
6865;DHT22;3471;49.678;8.388;2023-11-19T14:58:38;17.50;99.90
6865;DHT22;3471;49.678;8.388;2023-11-19T15:01:05;17.00;99.90
6865;DHT22;3471;49.678;8.388;2023-11-19T15:03:30;16.60;99.90
6865;DHT22;3471;49.678;8.388;2023-11-19T15:05:56;16.40;99.90
6865;DHT22;3471;49.678;8.388;2023-11-19T15:08:22;16.00;99.90
6865;DHT22;3471;49.678;8.388;2023-11-19T15:10:48;15.90;99.90
6865;DHT22;3471;49.678;8.388;2023-11-19T15:13:13;15.70;99.90
6865;DHT22;3471;49.678;8.388;2023-11-19T15:15:39;15.60;99.90
6865;DHT22;3471;49.678;8.388;2023-11-19T15:18:05;15.50;99.90
6865;DHT22;3471;49.678;8.388;2023-11-19T15:20:31;15.40;99.90
6865;DHT22;3471;49.678;8.388;2023-11-19T15:22:57;15.30;99.90
6865;DHT22;3471;49.678;8.388;2023-11-19T15:25:23;15.20;99.90
6865;DHT22;3471;49.678;8.388;2023-11-19T15:27:49;15.20;99.90
6865;DHT22;3471;49.678;8.388;2023-11-19T15:30:15;15.10;99.90
6865;DHT22;3471;49.678;8.388;2023-11-19T15:32:42;15.00;99.90
6865;DHT22;3471;49.678;8.388;2023-11-19T15:35:09;15.00;99.90
6865;DHT22;3471;49.678;8.388;2023-11-19T15:37:35;14.90;99.90
6865;DHT22;3471;49.678;8.388;2023-11-19T15:40:01;14.90;99.90
6865;DHT22;3471;49.678;8.388;2023-11-19T15:42:29;14.80;99.90
6865;DHT22;3471;49.678;8.388;2023-11-19T15:44:55;14.90;99.90
6865;DHT22;3471;49.678;8.388;2023-11-19T15:47:20;14.90;99.90
6865;DHT22;3471;49.678;8.388;2023-11-19T15:49:46;14.80;99.90
6865;DHT22;3471;49.678;8.388;2023-11-19T15:52:14;14.80;99.90
6865;DHT22;3471;49.678;8.388;2023-11-19T15:54:40;14.70;99.90
6865;DHT22;3471;49.678;8.388;2023-11-19T15:57:06;14.70;99.90
6865;DHT22;3471;49.678;8.388;2023-11-19T15:59:32;14.70;99.90
6865;DHT22;3471;49.678;8.388;2023-11-19T16:01:58;14.70;99.90
6865;DHT22;3471;49.678;8.388;2023-11-19T16:04:23;14.60;99.90
6865;DHT22;3471;49.678;8.388;2023-11-19T16:06:50;14.60;99.90
6865;DHT22;3471;49.678;8.388;2023-11-19T16:09:15;14.60;99.90
6865;DHT22;3471;49.678;8.388;2023-11-19T16:11:44;14.60;99.90
6865;DHT22;3471;49.678;8.388;2023-11-19T16:14:11;14.60;99.90
6865;DHT22;3471;49.678;8.388;2023-11-19T16:16:37;14.60;99.90
6865;DHT22;3471;49.678;8.388;2023-11-19T16:19:03;14.60;99.90
6865;DHT22;3471;49.678;8.388;2023-11-19T16:21:34;14.50;99.90
6865;DHT22;3471;49.678;8.388;2023-11-19T16:24:03;14.50;99.90
6865;DHT22;3471;49.678;8.388;2023-11-19T16:26:30;14.50;99.90